createdAt,value
2022-09-24T00:01:32.587Z,45.70
2022-09-24T00:04:07.306Z,50.30
2022-09-24T00:06:41.797Z,53.70
2022-09-24T00:09:11.516Z,51.70
2022-09-24T00:11:40.212Z,56.90
2022-09-24T00:14:08.344Z,59.10
2022-09-24T00:16:40.478Z,51.80
2022-09-24T00:19:08.378Z,54.10
2022-09-24T00:21:37.870Z,52.60
2022-09-24T00:24:36.179Z,50.50
2022-09-24T00:27:06.133Z,48.10
2022-09-24T00:29:35.621Z,45.30
2022-09-24T00:32:06.282Z,45.70
2022-09-24T00:34:34.494Z,43.90
2022-09-24T00:37:02.472Z,46.20
2022-09-24T00:39:30.344Z,38.00
2022-09-24T00:41:58.345Z,43.00
2022-09-24T00:44:44.935Z,40.10
2022-09-24T00:47:14.874Z,38.90
2022-09-24T00:49:42.691Z,37.20
2022-09-24T00:52:10.835Z,35.00
2022-09-24T00:54:39.679Z,36.40
2022-09-24T00:57:07.687Z,34.40
2022-09-24T00:59:35.904Z,37.30
2022-09-24T01:02:05.333Z,33.70
2022-09-24T01:04:33.360Z,34.70
2022-09-24T01:07:01.563Z,31.80
2022-09-24T01:09:29.916Z,41.50
2022-09-24T01:12:04.129Z,42.10
2022-09-24T01:14:57.996Z,39.20
2022-09-24T01:17:49.812Z,41.10
2022-09-24T01:20:28.265Z,44.20
2022-09-24T01:23:03.366Z,39.90
2022-09-24T01:26:08.043Z,51.20
2022-09-24T01:28:55.179Z,32.20
2022-09-24T01:31:41.876Z,33.20
2022-09-24T01:34:12.254Z,36.50
2022-09-24T01:36:40.796Z,35.10
2022-09-24T01:39:09.227Z,39.00
2022-09-24T01:41:38.604Z,30.40
2022-09-24T01:44:07.480Z,31.90
2022-09-24T01:46:39.424Z,26.90
2022-09-24T01:49:08.528Z,27.90
2022-09-24T01:51:49.481Z,26.50
2022-09-24T01:54:28.353Z,30.10
2022-09-24T01:57:24.281Z,28.80
2022-09-24T02:00:05.362Z,31.20
2022-09-24T02:02:45.444Z,29.00
2022-09-24T02:05:32.812Z,26.60
2022-09-24T02:08:14.990Z,30.10
2022-09-24T02:10:56.795Z,29.50
2022-09-24T02:13:27.758Z,25.90
2022-09-24T02:16:00.011Z,29.70
2022-09-24T02:18:33.651Z,30.30
2022-09-24T02:21:05.517Z,30.80
2022-09-24T02:23:37.698Z,29.70
2022-09-24T02:26:05.745Z,27.20
2022-09-24T02:28:34.280Z,30.60
2022-09-24T02:31:18.791Z,29.10
2022-09-24T02:34:08.096Z,31.10
2022-09-24T02:36:36.736Z,31.80
2022-09-24T02:39:04.822Z,29.30
2022-09-24T02:41:32.778Z,29.40
2022-09-24T02:44:00.689Z,29.40
2022-09-24T02:46:29.311Z,28.40
2022-09-24T02:48:57.789Z,22.40
2022-09-24T02:51:26.511Z,26.80
2022-09-24T02:53:54.285Z,24.90
2022-09-24T02:56:22.171Z,25.10
2022-09-24T02:58:49.901Z,27.90
2022-09-24T03:01:17.912Z,29.90
2022-09-24T03:03:46.141Z,33.30
2022-09-24T03:06:14.339Z,36.10
2022-09-24T03:08:43.316Z,39.50
2022-09-24T03:11:16.353Z,40.10
2022-09-24T03:13:46.305Z,49.70
2022-09-24T03:16:15.272Z,37.20
2022-09-24T03:18:43.289Z,34.80
2022-09-24T03:21:13.454Z,32.70
2022-09-24T03:23:41.792Z,34.40
2022-09-24T03:26:09.702Z,35.70
2022-09-24T03:28:38.114Z,30.20
2022-09-24T03:31:06.530Z,29.90
2022-09-24T03:33:40.402Z,24.60
2022-09-24T03:36:22.860Z,23.80
2022-09-24T03:38:56.514Z,27.00
2022-09-24T03:41:27.510Z,24.50
2022-09-24T03:43:56.003Z,20.70
2022-09-24T03:46:28.424Z,22.50
2022-09-24T03:48:57.976Z,21.40
2022-09-24T03:51:26.090Z,24.70
2022-09-24T03:53:53.953Z,25.20
2022-09-24T03:56:21.754Z,38.10
2022-09-24T03:58:49.539Z,60.50
2022-09-24T04:01:21.721Z,38.90
2022-09-24T04:03:50.628Z,41.00
2022-09-24T04:06:24.871Z,48.70
2022-09-24T04:08:54.127Z,80.20
2022-09-24T04:11:24.715Z,68.00
2022-09-24T04:13:53.650Z,64.60
2022-09-24T04:16:22.208Z,73.60
2022-09-24T04:18:52.608Z,91.10
2022-09-24T04:21:21.669Z,88.90
2022-09-24T04:23:52.156Z,92.00
2022-09-24T04:26:21.718Z,75.10
2022-09-24T04:28:50.602Z,41.00
2022-09-24T04:31:19.361Z,40.90
2022-09-24T04:33:47.378Z,32.50
2022-09-24T04:36:15.307Z,32.70
2022-09-24T04:38:43.335Z,40.10
2022-09-24T04:41:12.579Z,52.50
2022-09-24T04:43:46.074Z,67.60
2022-09-24T04:46:15.017Z,60.10
2022-09-24T04:48:56.534Z,57.00
2022-09-24T04:51:27.292Z,57.20
2022-09-24T04:54:02.079Z,82.00
2022-09-24T04:56:39.474Z,65.20
2022-09-24T04:59:18.257Z,65.20
2022-09-24T05:01:51.713Z,49.20
2022-09-24T05:04:20.312Z,45.40
2022-09-24T05:07:00.171Z,33.80
2022-09-24T05:09:32.337Z,32.10
2022-09-24T05:12:04.912Z,47.30
2022-09-24T05:14:36.317Z,52.00
2022-09-24T05:17:07.964Z,44.50
2022-09-24T05:19:38.313Z,49.60
2022-09-24T06:00:46.202Z,47.90
2022-09-24T06:03:16.006Z,36.80
2022-09-24T06:05:49.726Z,35.20
2022-09-24T06:08:19.427Z,42.90
2022-09-24T06:10:48.690Z,40.40
2022-09-24T06:13:19.100Z,42.70
2022-09-24T06:15:47.255Z,52.00
2022-09-24T06:18:15.424Z,41.20
2022-09-24T06:20:44.838Z,39.50
2022-09-24T06:23:13.863Z,36.50
2022-09-24T06:25:43.453Z,36.70
2022-09-24T06:28:11.446Z,37.90
2022-09-24T06:30:39.895Z,38.40
2022-09-24T06:33:11.772Z,33.50
2022-09-24T06:35:44.676Z,27.10
2022-09-24T06:38:18.428Z,27.80
2022-09-24T06:40:48.818Z,27.20
2022-09-24T06:43:20.661Z,24.00
2022-09-24T06:45:48.733Z,28.10
2022-09-24T06:48:18.043Z,24.00
2022-09-24T06:50:47.465Z,26.10
2022-09-24T06:53:16.086Z,26.10
2022-09-24T06:55:46.860Z,26.00
2022-09-24T06:58:20.155Z,25.10
2022-09-24T07:01:00.500Z,21.40
2022-09-24T07:03:32.578Z,37.60
2022-09-24T07:06:03.961Z,19.50
2022-09-24T07:08:36.095Z,18.70
2022-09-24T07:11:04.225Z,18.70
2022-09-24T07:13:38.065Z,18.10
2022-09-24T07:16:13.738Z,15.90
2022-09-24T07:18:42.072Z,19.90
2022-09-24T07:21:10.072Z,17.20
2022-09-24T07:23:38.033Z,18.40
2022-09-24T07:26:06.204Z,18.70
2022-09-24T07:28:36.572Z,18.90
2022-09-24T07:31:04.701Z,17.30
2022-09-24T07:33:32.629Z,19.30
2022-09-24T07:36:07.394Z,16.10
2022-09-24T07:38:39.013Z,17.30
2022-09-24T07:41:09.645Z,18.20
2022-09-24T07:43:37.463Z,16.30
2022-09-24T07:46:05.992Z,19.20
2022-09-24T07:48:33.787Z,17.40
2022-09-24T07:51:01.630Z,19.30
2022-09-24T07:53:29.439Z,25.30
2022-09-24T07:56:00.665Z,15.80
2022-09-24T07:58:32.038Z,20.10
2022-09-24T08:01:01.836Z,15.90
2022-09-24T08:03:33.301Z,18.60
2022-09-24T08:06:01.942Z,15.80
2022-09-24T08:08:30.212Z,16.20
2022-09-24T08:10:58.178Z,16.70
2022-09-24T08:13:27.860Z,16.80
2022-09-24T08:15:59.720Z,26.20
2022-09-24T08:18:31.850Z,14.90
2022-09-24T08:21:09.459Z,17.80
2022-09-24T08:23:40.239Z,81.40
2022-09-24T08:26:09.056Z,17.50
2022-09-24T08:28:38.126Z,16.20
2022-09-24T08:31:10.119Z,16.00
2022-09-24T08:33:39.219Z,16.80
2022-09-24T08:36:09.913Z,16.80
2022-09-24T08:38:40.552Z,15.80
2022-09-24T08:41:14.308Z,16.30
2022-09-24T08:43:54.610Z,16.50
2022-09-24T08:57:14.497Z,15.90
2022-09-24T08:59:48.931Z,15.50
2022-09-24T09:02:56.818Z,16.00
2022-09-24T09:05:53.942Z,16.90
2022-09-24T09:09:05.095Z,15.40
2022-09-24T09:11:35.820Z,18.60
2022-09-24T09:14:26.095Z,15.20
2022-09-24T09:17:03.636Z,17.00
2022-09-24T09:19:39.677Z,14.90
2022-09-24T09:22:16.358Z,11.90
2022-09-24T09:24:52.264Z,13.50
2022-09-24T09:27:30.410Z,13.40
2022-09-24T09:30:08.058Z,12.80
2022-09-24T09:33:18.995Z,13.30
2022-09-24T09:36:00.863Z,11.70
2022-09-24T09:38:51.789Z,11.60
2022-09-24T09:41:54.466Z,10.30
2022-09-24T09:44:30.374Z,10.80
2022-09-24T09:47:16.952Z,10.40
2022-09-24T09:50:06.423Z,9.30
2022-09-24T09:52:46.197Z,11.70
2022-09-24T09:56:06.156Z,8.70
2022-09-24T09:59:36.948Z,9.50
2022-09-24T10:02:58.121Z,8.20
2022-09-24T10:05:32.770Z,8.70
2022-09-24T10:08:24.362Z,10.30
2022-09-24T10:11:01.535Z,8.20
2022-09-24T10:13:32.651Z,8.80
2022-09-24T10:16:06.663Z,11.40
2022-09-24T10:18:58.302Z,5.70
2022-09-24T10:21:44.907Z,11.00
2022-09-24T10:24:38.589Z,5.90
2022-09-24T10:27:19.436Z,5.10
2022-09-24T10:30:07.617Z,5.50
2022-09-24T10:32:54.468Z,3.70
2022-09-24T10:35:35.874Z,4.40
2022-09-24T10:38:17.168Z,4.30
2022-09-24T10:40:46.450Z,4.40
2022-09-24T10:43:21.718Z,4.60
2022-09-24T10:46:24.962Z,9.00
2022-09-24T10:49:13.689Z,7.10
2022-09-24T10:52:04.714Z,5.50
2022-09-24T10:54:57.345Z,5.20
2022-09-24T10:57:35.078Z,4.50
2022-09-24T11:00:22.460Z,4.90
2022-09-24T11:03:20.209Z,4.90
2022-09-24T11:06:18.685Z,5.00
2022-09-24T11:09:26.788Z,4.00
2022-09-24T11:12:05.744Z,4.20
2022-09-24T11:15:01.779Z,6.30
2022-09-24T11:17:52.822Z,4.50
2022-09-24T11:20:30.490Z,4.90
2022-09-24T11:23:44.808Z,5.30
2022-09-24T11:26:46.131Z,8.10
2022-09-24T11:29:39.806Z,5.50
2022-09-24T11:32:33.073Z,6.30
2022-09-24T11:35:24.316Z,4.80
2022-09-24T11:38:09.719Z,6.40
2022-09-24T11:41:12.499Z,8.40
2022-09-24T11:44:05.007Z,5.40
2022-09-24T11:47:15.199Z,5.10
2022-09-24T11:50:21.368Z,6.00
2022-09-24T11:53:08.886Z,8.90
2022-09-24T11:55:52.065Z,6.70
2022-09-24T11:59:09.816Z,6.70
2022-09-24T12:01:41.162Z,7.90
2022-09-24T12:04:19.417Z,6.20
2022-09-24T12:06:56.974Z,5.60
2022-09-24T12:09:44.181Z,5.80
2022-09-24T12:12:40.515Z,5.10
2022-09-24T12:15:21.842Z,8.10
2022-09-24T12:18:04.334Z,5.40
2022-09-24T12:20:50.818Z,6.20
2022-09-24T12:23:29.754Z,5.00
2022-09-24T12:26:21.668Z,9.10
2022-09-24T12:29:48.848Z,6.70
2022-09-24T12:32:59.832Z,5.80
2022-09-24T12:36:04.758Z,6.60
2022-09-24T12:38:57.886Z,7.00
2022-09-24T12:41:33.405Z,5.70
2022-09-24T12:44:11.600Z,8.70
2022-09-24T12:46:53.488Z,7.10
2022-09-24T12:49:33.002Z,8.80
2022-09-24T12:52:25.004Z,4.30
2022-09-24T12:55:03.045Z,3.70
2022-09-24T12:57:37.023Z,6.80
2022-09-24T13:00:39.545Z,4.10
2022-09-24T13:03:33.987Z,3.90
2022-09-24T13:06:33.438Z,5.70
2022-09-24T13:09:46.025Z,4.20
2022-09-24T13:12:47.406Z,6.20
2022-09-24T13:15:42.508Z,7.60
2022-09-24T13:18:14.936Z,4.80
2022-09-24T13:20:50.097Z,4.30
2022-09-24T13:23:22.426Z,6.30
2022-09-24T13:26:06.106Z,6.40
2022-09-24T13:29:09.037Z,4.60
2022-09-24T13:39:08.117Z,5.80
2022-09-24T13:42:02.673Z,6.10
2022-09-24T13:44:58.740Z,5.80
2022-09-24T13:48:28.324Z,5.80
2022-09-24T13:50:59.249Z,8.50
2022-09-24T13:53:45.484Z,4.90
2022-09-24T13:56:18.915Z,6.30
2022-09-24T13:58:55.426Z,5.60
2022-09-24T14:01:30.547Z,7.30
2022-09-24T14:04:25.831Z,6.80
2022-09-24T14:06:58.957Z,6.50
2022-09-24T14:09:58.482Z,4.50
2022-09-24T14:12:39.129Z,5.50
2022-09-24T14:15:21.063Z,6.60
2022-09-24T14:18:01.536Z,6.70
2022-09-24T14:20:35.993Z,4.40
2022-09-24T14:23:05.320Z,5.80
2022-09-24T14:25:47.940Z,6.10
2022-09-24T14:28:17.523Z,7.80
2022-09-24T14:30:54.364Z,5.90
2022-09-24T14:33:29.895Z,6.60
2022-09-24T14:35:59.410Z,11.80
2022-09-24T14:38:36.662Z,5.70
2022-09-24T14:41:32.295Z,7.80
2022-09-24T14:44:06.097Z,6.80
2022-09-24T14:46:50.615Z,6.30
2022-09-24T14:49:56.090Z,7.10
2022-09-24T14:52:30.736Z,8.80
2022-09-24T14:55:24.671Z,6.50
2022-09-24T14:57:57.980Z,4.50
2022-09-24T15:00:48.059Z,3.90
2022-09-24T15:03:23.415Z,5.60
2022-09-24T15:06:28.987Z,7.30
2022-09-24T15:09:31.664Z,5.00
2022-09-24T15:12:30.676Z,5.10
2022-09-24T15:15:21.059Z,6.00
2022-09-24T15:17:49.561Z,5.30
2022-09-24T15:20:21.801Z,5.70
2022-09-24T15:22:49.962Z,6.30
2022-09-24T15:25:17.746Z,7.60
2022-09-24T15:27:52.795Z,8.70
2022-09-24T15:30:25.580Z,5.60
2022-09-24T15:33:02.391Z,5.80
2022-09-24T15:35:40.016Z,5.60
2022-09-24T15:38:18.659Z,6.60
2022-09-24T15:40:53.555Z,6.60
2022-09-24T15:43:25.127Z,10.10
2022-09-24T15:45:53.423Z,8.20
2022-09-24T15:48:20.324Z,7.60
2022-09-24T15:50:57.292Z,9.60
2022-09-24T15:53:31.017Z,12.10
2022-09-24T15:56:00.632Z,15.10
2022-09-24T15:58:34.421Z,13.20
2022-09-24T16:01:19.925Z,14.20
2022-09-24T16:03:46.869Z,29.20
2022-09-24T16:06:13.682Z,26.80
2022-09-24T16:08:44.654Z,37.80
2022-09-24T16:11:11.801Z,63.70
2022-09-24T16:13:45.478Z,33.30
2022-09-24T16:16:13.055Z,34.30
2022-09-24T16:18:42.760Z,17.30
2022-09-24T16:21:13.952Z,18.40
2022-09-24T16:23:42.684Z,14.20
2022-09-24T16:26:09.694Z,18.20
2022-09-24T16:28:38.653Z,16.90
2022-09-24T16:31:07.018Z,15.60
2022-09-24T16:33:39.309Z,15.80
2022-09-24T16:36:08.241Z,16.80
2022-09-24T16:38:40.937Z,20.30
2022-09-24T16:41:08.026Z,52.10
2022-09-24T16:43:34.971Z,56.00
2022-09-24T16:46:07.385Z,61.10
2022-09-24T16:51:10.951Z,85.60
2022-09-24T16:53:48.416Z,89.90
2022-09-24T16:56:23.995Z,89.10
2022-09-24T16:59:01.227Z,87.50
2022-09-24T17:04:43.255Z,78.20
2022-09-24T17:07:31.505Z,57.70
2022-09-24T17:10:21.213Z,57.80
2022-09-24T17:13:05.718Z,58.20
2022-09-24T17:15:38.411Z,63.10
2022-09-24T17:18:12.778Z,56.00
2022-09-24T17:20:48.150Z,92.90
2022-09-24T17:23:17.563Z,138.20
2022-09-24T17:25:47.766Z,104.60
2022-09-24T17:28:23.454Z,101.00
2022-09-24T17:30:51.517Z,108.80
2022-09-24T17:33:41.845Z,108.60
2022-09-24T17:36:09.232Z,114.20
2022-09-24T17:38:37.067Z,117.40
2022-09-24T17:41:07.524Z,151.60
2022-09-24T17:43:37.409Z,175.50
2022-09-24T17:46:16.462Z,166.60
2022-09-24T17:48:52.691Z,160.70
2022-09-24T17:51:32.565Z,179.70
2022-09-24T17:54:05.139Z,197.60
2022-09-24T17:56:33.829Z,219.50
2022-09-24T17:59:00.673Z,214.10
2022-09-24T18:01:38.173Z,212.10
2022-09-24T18:04:16.485Z,213.70
2022-09-24T18:06:46.067Z,169.70
2022-09-24T18:09:15.279Z,142.90
2022-09-24T18:11:46.659Z,134.40
2022-09-24T18:14:21.622Z,133.50
2022-09-24T18:16:50.067Z,114.30
2022-09-24T18:19:17.798Z,91.90
2022-09-24T18:21:46.296Z,98.20
2022-09-24T18:24:16.217Z,80.20
2022-09-24T18:26:43.882Z,76.40
2022-09-24T18:29:16.020Z,74.10
2022-09-24T18:31:44.367Z,81.40
2022-09-24T18:34:15.020Z,81.40
2022-09-24T18:36:44.363Z,72.70
2022-09-24T18:39:13.979Z,69.30
2022-09-24T18:41:45.668Z,68.20
2022-09-24T18:44:14.233Z,64.00
2022-09-24T18:46:41.556Z,61.60
2022-09-24T18:49:09.704Z,64.60
2022-09-24T18:51:41.083Z,62.80
2022-09-24T18:54:12.034Z,70.70
2022-09-24T18:56:39.444Z,73.40
2022-09-24T18:59:11.528Z,72.40
2022-09-24T19:01:40.124Z,68.00
2022-09-24T19:04:11.080Z,87.60
2022-09-24T19:06:47.889Z,173.60
2022-09-24T19:09:23.297Z,226.80
2022-09-24T19:11:50.637Z,248.40
2022-09-24T19:14:22.241Z,240.10
2022-09-24T19:17:00.381Z,212.60
2022-09-24T19:20:13.846Z,155.10
2022-09-24T19:23:13.057Z,133.40
2022-09-24T19:25:45.298Z,157.30
2022-09-24T19:28:39.920Z,163.80
2022-09-24T19:31:32.069Z,161.30
2022-09-24T19:34:03.302Z,136.50
2022-09-24T19:36:42.953Z,125.40
2022-09-24T19:39:14.771Z,105.80
2022-09-24T19:41:45.757Z,101.50
2022-09-24T19:44:13.025Z,95.30
2022-09-24T19:46:43.575Z,109.30
2022-09-24T19:49:17.918Z,130.90
2022-09-24T19:51:52.732Z,127.10
2022-09-24T19:54:19.717Z,130.90
2022-09-24T19:56:58.950Z,123.00
2022-09-24T19:59:33.206Z,120.40
2022-09-24T20:02:01.507Z,148.50
2022-09-24T20:04:32.618Z,150.50
2022-09-24T20:07:05.650Z,123.20
2022-09-24T20:09:36.309Z,125.70
2022-09-24T20:12:04.181Z,118.30
2022-09-24T20:15:50.018Z,118.90
2022-09-24T20:18:25.309Z,125.90
2022-09-24T20:20:55.642Z,125.70
2022-09-24T20:23:48.726Z,136.60
2022-09-24T20:26:38.321Z,151.70
2022-09-24T20:29:32.238Z,163.50
2022-09-24T20:32:04.816Z,190.60
2022-09-24T20:34:35.794Z,193.10
2022-09-24T20:37:05.741Z,271.40
2022-09-24T20:39:40.477Z,274.30
2022-09-24T20:42:08.370Z,289.50
2022-09-24T20:44:41.602Z,275.90
2022-09-24T20:47:10.029Z,223.60
2022-09-24T20:49:37.466Z,237.00
2022-09-24T20:52:05.252Z,232.10
2022-09-24T20:54:33.217Z,228.00
2022-09-24T20:56:59.926Z,243.80
2022-09-24T20:59:26.901Z,236.70
2022-09-24T21:01:56.918Z,255.70
2022-09-24T21:04:23.943Z,241.00
2022-09-24T21:06:50.756Z,246.60
2022-09-24T21:09:17.965Z,217.80
2022-09-24T21:11:45.505Z,200.70
2022-09-24T21:14:17.385Z,202.60
2022-09-24T21:16:45.166Z,192.10
2022-09-24T21:19:13.915Z,174.60
2022-09-24T21:21:45.501Z,165.20
2022-09-24T21:24:16.083Z,166.40
2022-09-24T21:26:46.664Z,171.90
2022-09-24T21:29:18.188Z,169.40
2022-09-24T21:31:46.752Z,163.50
2022-09-24T21:34:19.387Z,158.90
2022-09-24T21:36:46.570Z,152.30
2022-09-24T21:39:22.513Z,168.30
2022-09-24T21:41:52.658Z,173.20
2022-09-24T21:44:20.170Z,181.10
2022-09-24T21:46:50.559Z,184.00
2022-09-24T21:49:18.988Z,192.10
2022-09-24T21:51:46.775Z,189.10
2022-09-24T21:54:16.472Z,175.80
2022-09-24T21:56:44.259Z,181.80
2022-09-24T21:59:31.597Z,178.30
2022-09-24T22:02:00.939Z,181.70
2022-09-24T22:04:28.262Z,197.10
2022-09-24T22:06:55.310Z,181.00
2022-09-24T22:09:24.650Z,178.00
2022-09-24T22:11:52.208Z,171.30
2022-09-24T22:14:19.223Z,148.80
2022-09-24T22:16:46.704Z,151.40
2022-09-24T22:19:14.245Z,163.10
2022-09-24T22:21:41.028Z,134.40
2022-09-24T22:24:08.073Z,134.10
2022-09-24T22:26:35.665Z,136.80
2022-09-24T22:29:03.424Z,147.60
2022-09-24T22:31:30.321Z,142.30
2022-09-24T22:34:15.548Z,134.70
2022-09-24T22:36:42.061Z,137.50
2022-09-24T22:39:08.762Z,138.50
2022-09-24T22:41:39.397Z,128.20
2022-09-24T22:44:06.807Z,129.40
2022-09-24T22:46:35.502Z,124.50
2022-09-24T22:49:04.686Z,120.60
2022-09-24T22:51:33.074Z,116.70
2022-09-24T22:53:59.633Z,123.00
2022-09-24T22:56:27.376Z,126.00
2022-09-24T22:58:59.783Z,122.40
2022-09-24T23:01:30.788Z,122.40
2022-09-24T23:03:57.695Z,124.60
2022-09-24T23:06:29.574Z,130.10
2022-09-24T23:08:56.685Z,133.90
2022-09-24T23:11:26.889Z,131.20
2022-09-24T23:13:57.073Z,133.20
2022-09-24T23:16:34.435Z,125.40
2022-09-24T23:19:04.833Z,128.70
2022-09-24T23:21:32.855Z,129.70
2022-09-24T23:24:23.527Z,136.30
2022-09-24T23:26:50.542Z,160.10
2022-09-24T23:29:17.118Z,123.20
2022-09-24T23:31:43.739Z,130.10
2022-09-24T23:34:11.680Z,136.30
2022-09-24T23:36:38.576Z,166.40
2022-09-24T23:39:05.514Z,148.50
2022-09-24T23:41:37.480Z,146.50
2022-09-24T23:44:10.732Z,186.80
2022-09-24T23:46:37.935Z,218.00
2022-09-24T23:49:06.861Z,195.50
2022-09-24T23:51:33.774Z,179.20
2022-09-24T23:54:01.961Z,136.70
2022-09-24T23:56:28.905Z,132.40
2022-09-24T23:58:57.042Z,119.20
